sensor_id;sensor_type;location;lat;lon;timestamp;pressure;altitude;pressure_sealevel;temperature;humidity
64711;BME280;51139;45.626;6.850;2023-07-31T06:13:47;82318.63;;;13.24;69.99
64711;BME280;51139;45.626;6.850;2023-07-31T06:16:14;82323.47;;;12.78;79.41
64711;BME280;51139;45.626;6.850;2023-07-31T06:18:40;82318.09;;;12.39;79.47
64711;BME280;51139;45.626;6.850;2023-07-31T06:21:06;82317.03;;;11.87;84.55
64711;BME280;51139;45.626;6.850;2023-07-31T06:23:31;82305.97;;;11.81;86.15
64711;BME280;51139;45.626;6.850;2023-07-31T06:25:57;82313.59;;;11.94;82.06
64711;BME280;51139;45.626;6.850;2023-07-31T06:28:27;82314.38;;;12.15;81.37
64711;BME280;51139;45.626;6.850;2023-07-31T06:30:54;82316.59;;;12.55;75.36
64711;BME280;51139;45.626;6.850;2023-07-31T06:33:19;82318.03;;;12.76;73.16
64711;BME280;51139;45.626;6.850;2023-07-31T06:35:45;82311.34;;;12.95;70.93
64711;BME280;51139;45.626;6.850;2023-07-31T06:38:10;82312.34;;;13.49;66.92
64711;BME280;51139;45.626;6.850;2023-07-31T06:40:36;82316.09;;;13.85;64.56
64711;BME280;51139;45.626;6.850;2023-07-31T06:43:01;82316.50;;;14.42;63.11
64711;BME280;51139;45.626;6.850;2023-07-31T06:45:33;82310.78;;;13.85;65.20
64711;BME280;51139;45.626;6.850;2023-07-31T06:47:59;82316.38;;;13.89;71.57
64711;BME280;51139;45.626;6.850;2023-07-31T06:50:27;82316.47;;;14.01;62.38
64711;BME280;51139;45.626;6.850;2023-07-31T06:52:52;82311.88;;;13.92;64.65
64711;BME280;51139;45.626;6.850;2023-07-31T06:55:19;82306.00;;;15.20;58.79
64711;BME280;51139;45.626;6.850;2023-07-31T06:57:49;82306.44;;;15.38;56.82
64711;BME280;51139;45.626;6.850;2023-07-31T07:00:15;82301.50;;;15.78;56.24
64711;BME280;51139;45.626;6.850;2023-07-31T07:02:41;82298.28;;;15.57;53.14
64711;BME280;51139;45.626;6.850;2023-07-31T07:05:07;82307.63;;;16.02;52.41
64711;BME280;51139;45.626;6.850;2023-07-31T07:07:33;82304.97;;;16.02;55.21
64711;BME280;51139;45.626;6.850;2023-07-31T07:09:58;82292.25;;;16.60;53.64
64711;BME280;51139;45.626;6.850;2023-07-31T07:12:30;82298.78;;;16.92;51.40
64711;BME280;51139;45.626;6.850;2023-07-31T07:14:56;82287.34;;;16.32;55.88
64711;BME280;51139;45.626;6.850;2023-07-31T07:17:27;82289.09;;;15.27;59.18
64711;BME280;51139;45.626;6.850;2023-07-31T07:19:53;82285.94;;;16.19;57.17
64711;BME280;51139;45.626;6.850;2023-07-31T07:22:18;82278.97;;;16.26;56.46
64711;BME280;51139;45.626;6.850;2023-07-31T07:24:44;82278.66;;;16.44;58.11
64711;BME280;51139;45.626;6.850;2023-07-31T07:27:09;82274.25;;;16.96;50.66
64711;BME280;51139;45.626;6.850;2023-07-31T07:29:35;82274.09;;;17.18;50.95
64711;BME280;51139;45.626;6.850;2023-07-31T07:32:00;82274.38;;;16.62;53.29
64711;BME280;51139;45.626;6.850;2023-07-31T07:34:27;82272.50;;;16.89;51.87
64711;BME280;51139;45.626;6.850;2023-07-31T07:36:52;82270.81;;;17.31;56.59
64711;BME280;51139;45.626;6.850;2023-07-31T07:39:18;82261.78;;;17.25;54.47
64711;BME280;51139;45.626;6.850;2023-07-31T07:41:43;82268.88;;;16.84;60.30
64711;BME280;51139;45.626;6.850;2023-07-31T07:44:08;82268.56;;;17.52;54.25
64711;BME280;51139;45.626;6.850;2023-07-31T07:46:34;82264.69;;;17.92;55.00
64711;BME280;51139;45.626;6.850;2023-07-31T07:48:59;82272.13;;;17.94;53.85
64711;BME280;51139;45.626;6.850;2023-07-31T07:51:25;82276.44;;;18.25;50.42
64711;BME280;51139;45.626;6.850;2023-07-31T07:53:50;82277.09;;;18.51;54.01
64711;BME280;51139;45.626;6.850;2023-07-31T07:56:15;82279.81;;;17.62;57.47
64711;BME280;51139;45.626;6.850;2023-07-31T07:58:41;82279.13;;;17.61;55.67
64711;BME280;51139;45.626;6.850;2023-07-31T08:01:06;82280.47;;;18.12;54.00
64711;BME280;51139;45.626;6.850;2023-07-31T08:03:31;82282.63;;;17.90;54.88
64711;BME280;51139;45.626;6.850;2023-07-31T08:06:00;82279.84;;;17.88;53.93
64711;BME280;51139;45.626;6.850;2023-07-31T08:08:26;82281.44;;;17.17;57.12
64711;BME280;51139;45.626;6.850;2023-07-31T08:10:52;82284.06;;;17.41;55.98
64711;BME280;51139;45.626;6.850;2023-07-31T08:13:17;82281.41;;;17.79;54.29
64711;BME280;51139;45.626;6.850;2023-07-31T08:15:42;82281.13;;;17.87;55.58
64711;BME280;51139;45.626;6.850;2023-07-31T08:18:08;82286.78;;;17.67;57.55
64711;BME280;51139;45.626;6.850;2023-07-31T08:20:37;82286.25;;;17.45;56.73
64711;BME280;51139;45.626;6.850;2023-07-31T08:23:03;82276.31;;;17.59;56.83
64711;BME280;51139;45.626;6.850;2023-07-31T08:25:28;82281.41;;;17.79;51.16
64711;BME280;51139;45.626;6.850;2023-07-31T08:27:54;82281.09;;;18.25;50.86
64711;BME280;51139;45.626;6.850;2023-07-31T08:30:19;82277.66;;;18.36;52.49
64711;BME280;51139;45.626;6.850;2023-07-31T08:32:45;82279.00;;;16.62;57.67
64711;BME280;51139;45.626;6.850;2023-07-31T08:35:10;82285.38;;;17.16;55.81
64711;BME280;51139;45.626;6.850;2023-07-31T08:37:37;82283.66;;;17.97;54.19
64711;BME280;51139;45.626;6.850;2023-07-31T08:40:03;82279.84;;;17.50;59.41
64711;BME280;51139;45.626;6.850;2023-07-31T08:42:29;82288.03;;;18.16;57.02
64711;BME280;51139;45.626;6.850;2023-07-31T08:44:56;82286.59;;;17.89;57.59
64711;BME280;51139;45.626;6.850;2023-07-31T08:47:22;82287.88;;;17.88;53.65
64711;BME280;51139;45.626;6.850;2023-07-31T08:49:49;82275.38;;;17.67;61.48
64711;BME280;51139;45.626;6.850;2023-07-31T08:52:16;82278.22;;;18.20;62.33
64711;BME280;51139;45.626;6.850;2023-07-31T08:54:41;82276.91;;;17.96;64.93
64711;BME280;51139;45.626;6.850;2023-07-31T08:57:07;82285.56;;;18.20;59.87
64711;BME280;51139;45.626;6.850;2023-07-31T08:59:34;82285.31;;;18.42;60.22
64711;BME280;51139;45.626;6.850;2023-07-31T09:02:06;82277.81;;;17.62;61.77
64711;BME280;51139;45.626;6.850;2023-07-31T09:04:33;82277.84;;;17.01;67.15
64711;BME280;51139;45.626;6.850;2023-07-31T09:07:02;82286.13;;;17.55;61.37
64711;BME280;51139;45.626;6.850;2023-07-31T09:09:31;82277.94;;;18.28;60.65
64711;BME280;51139;45.626;6.850;2023-07-31T09:11:57;82276.59;;;17.52;64.13
64711;BME280;51139;45.626;6.850;2023-07-31T09:14:25;82269.97;;;17.53;62.22
64711;BME280;51139;45.626;6.850;2023-07-31T09:16:52;82264.41;;;17.36;60.91
64711;BME280;51139;45.626;6.850;2023-07-31T09:19:25;82268.97;;;17.22;66.41
64711;BME280;51139;45.626;6.850;2023-07-31T09:21:51;82264.53;;;18.02;59.28
64711;BME280;51139;45.626;6.850;2023-07-31T09:24:27;82263.72;;;18.00;58.56
64711;BME280;51139;45.626;6.850;2023-07-31T09:26:58;82268.06;;;17.93;64.97
64711;BME280;51139;45.626;6.850;2023-07-31T09:29:24;82273.88;;;18.27;57.30
64711;BME280;51139;45.626;6.850;2023-07-31T09:31:50;82280.00;;;18.16;55.12
64711;BME280;51139;45.626;6.850;2023-07-31T09:34:16;82271.09;;;18.39;58.26
64711;BME280;51139;45.626;6.850;2023-07-31T09:36:46;82281.72;;;18.37;60.71
64711;BME280;51139;45.626;6.850;2023-07-31T09:39:15;82281.56;;;18.47;57.66
64711;BME280;51139;45.626;6.850;2023-07-31T09:41:53;82270.06;;;18.58;55.89
64711;BME280;51139;45.626;6.850;2023-07-31T09:44:19;82276.84;;;18.73;57.07
64711;BME280;51139;45.626;6.850;2023-07-31T09:46:45;82276.31;;;19.31;50.26
64711;BME280;51139;45.626;6.850;2023-07-31T09:49:20;82273.19;;;19.50;48.47
64711;BME280;51139;45.626;6.850;2023-07-31T09:51:46;82276.41;;;19.19;49.08
64711;BME280;51139;45.626;6.850;2023-07-31T09:54:13;82276.06;;;18.85;48.30
64711;BME280;51139;45.626;6.850;2023-07-31T09:56:49;82275.22;;;19.08;46.64
64711;BME280;51139;45.626;6.850;2023-07-31T09:59:16;82276.47;;;18.93;49.59
64711;BME280;51139;45.626;6.850;2023-07-31T10:01:43;82278.19;;;19.14;48.58
64711;BME280;51139;45.626;6.850;2023-07-31T10:04:10;82270.53;;;19.22;44.71
64711;BME280;51139;45.626;6.850;2023-07-31T10:06:37;82269.03;;;19.33;49.85
64711;BME280;51139;45.626;6.850;2023-07-31T10:09:05;82255.91;;;19.12;48.36
64711;BME280;51139;45.626;6.850;2023-07-31T10:11:35;82258.50;;;19.09;47.56
64711;BME280;51139;45.626;6.850;2023-07-31T10:14:03;82262.00;;;19.12;47.87
64711;BME280;51139;45.626;6.850;2023-07-31T10:16:30;82257.59;;;19.47;45.22
64711;BME280;51139;45.626;6.850;2023-07-31T10:18:57;82268.72;;;19.55;48.81
64711;BME280;51139;45.626;6.850;2023-07-31T10:21:23;82268.75;;;19.41;49.99
64711;BME280;51139;45.626;6.850;2023-07-31T10:24:10;82264.06;;;19.28;51.50
64711;BME280;51139;45.626;6.850;2023-07-31T10:26:37;82268.94;;;19.03;49.79
64711;BME280;51139;45.626;6.850;2023-07-31T10:29:05;82268.34;;;19.05;46.00
64711;BME280;51139;45.626;6.850;2023-07-31T10:31:35;82255.69;;;19.35;38.15
64711;BME280;51139;45.626;6.850;2023-07-31T10:34:04;82257.78;;;19.51;42.03
64711;BME280;51139;45.626;6.850;2023-07-31T10:36:30;82258.13;;;19.73;44.81
64711;BME280;51139;45.626;6.850;2023-07-31T10:38:55;82264.91;;;19.74;46.97
64711;BME280;51139;45.626;6.850;2023-07-31T10:41:28;82259.03;;;19.92;42.87
64711;BME280;51139;45.626;6.850;2023-07-31T10:43:57;82271.53;;;19.43;46.14
64711;BME280;51139;45.626;6.850;2023-07-31T10:46:23;82266.53;;;20.09;48.78
64711;BME280;51139;45.626;6.850;2023-07-31T10:48:57;82253.53;;;20.66;36.40
64711;BME280;51139;45.626;6.850;2023-07-31T10:51:23;82257.88;;;20.57;42.19
64711;BME280;51139;45.626;6.850;2023-07-31T10:54:10;82258.66;;;20.14;45.51
64711;BME280;51139;45.626;6.850;2023-07-31T10:56:37;82257.09;;;20.08;43.13
64711;BME280;51139;45.626;6.850;2023-07-31T10:59:03;82259.44;;;19.72;41.89
64711;BME280;51139;45.626;6.850;2023-07-31T11:01:50;82260.50;;;19.95;44.80
64711;BME280;51139;45.626;6.850;2023-07-31T11:04:22;82261.84;;;20.10;43.54
64711;BME280;51139;45.626;6.850;2023-07-31T11:07:01;82251.91;;;20.29;44.84
64711;BME280;51139;45.626;6.850;2023-07-31T11:09:29;82265.50;;;20.47;44.47
64711;BME280;51139;45.626;6.850;2023-07-31T11:11:56;82259.06;;;20.08;42.70
64711;BME280;51139;45.626;6.850;2023-07-31T11:14:21;82261.00;;;19.91;43.45
64711;BME280;51139;45.626;6.850;2023-07-31T11:16:50;82252.44;;;19.95;42.62
64711;BME280;51139;45.626;6.850;2023-07-31T11:19:21;82255.59;;;20.35;41.91
64711;BME280;51139;45.626;6.850;2023-07-31T11:21:47;82242.19;;;19.77;40.80
64711;BME280;51139;45.626;6.850;2023-07-31T11:24:13;82246.34;;;20.24;42.68
64711;BME280;51139;45.626;6.850;2023-07-31T11:26:38;82252.84;;;20.49;39.76
64711;BME280;51139;45.626;6.850;2023-07-31T11:29:11;82241.06;;;20.26;39.82
64711;BME280;51139;45.626;6.850;2023-07-31T11:31:42;82244.91;;;20.37;40.46
64711;BME280;51139;45.626;6.850;2023-07-31T11:34:08;82243.34;;;20.32;41.56
64711;BME280;51139;45.626;6.850;2023-07-31T11:36:33;82250.38;;;20.39;38.91
64711;BME280;51139;45.626;6.850;2023-07-31T11:39:08;82239.41;;;20.19;39.49
64711;BME280;51139;45.626;6.850;2023-07-31T11:41:34;82238.31;;;19.94;39.08
64711;BME280;51139;45.626;6.850;2023-07-31T11:44:00;82232.16;;;19.78;42.50
64711;BME280;51139;45.626;6.850;2023-07-31T11:46:26;82238.22;;;19.92;40.66
64711;BME280;51139;45.626;6.850;2023-07-31T11:48:59;82234.56;;;20.16;42.62
64711;BME280;51139;45.626;6.850;2023-07-31T11:51:24;82234.78;;;19.62;41.00
64711;BME280;51139;45.626;6.850;2023-07-31T11:53:53;82226.59;;;19.74;42.72
64711;BME280;51139;45.626;6.850;2023-07-31T11:56:21;82226.63;;;20.04;38.56
64711;BME280;51139;45.626;6.850;2023-07-31T11:58:55;82221.22;;;20.34;43.76
64711;BME280;51139;45.626;6.850;2023-07-31T12:01:22;82221.75;;;20.46;42.68
64711;BME280;51139;45.626;6.850;2023-07-31T12:03:50;82223.63;;;21.06;37.71
64711;BME280;51139;45.626;6.850;2023-07-31T12:06:16;82221.75;;;20.46;40.68
64711;BME280;51139;45.626;6.850;2023-07-31T12:08:41;82220.59;;;20.19;41.10
64711;BME280;51139;45.626;6.850;2023-07-31T12:11:08;82211.78;;;20.33;42.89
64711;BME280;51139;45.626;6.850;2023-07-31T12:13:38;82214.56;;;20.35;40.07
64711;BME280;51139;45.626;6.850;2023-07-31T12:16:04;82212.41;;;20.47;40.50
64711;BME280;51139;45.626;6.850;2023-07-31T12:18:34;82210.28;;;20.30;40.50
64711;BME280;51139;45.626;6.850;2023-07-31T12:21:03;82212.59;;;19.61;35.59
64711;BME280;51139;45.626;6.850;2023-07-31T12:23:31;82210.31;;;20.00;37.21
64711;BME280;51139;45.626;6.850;2023-07-31T12:28:30;82211.72;;;20.63;38.25
64711;BME280;51139;45.626;6.850;2023-07-31T12:30:59;82210.13;;;20.74;36.19
64711;BME280;51139;45.626;6.850;2023-07-31T12:33:34;82217.78;;;20.63;32.47
64711;BME280;51139;45.626;6.850;2023-07-31T12:36:01;82213.44;;;20.72;36.33
64711;BME280;51139;45.626;6.850;2023-07-31T12:38:28;82205.78;;;20.34;37.11
64711;BME280;51139;45.626;6.850;2023-07-31T12:40:53;82213.38;;;21.02;38.80
64711;BME280;51139;45.626;6.850;2023-07-31T12:43:18;82208.69;;;21.03;37.61
64711;BME280;51139;45.626;6.850;2023-07-31T12:45:44;82203.34;;;20.73;33.50
64711;BME280;51139;45.626;6.850;2023-07-31T12:48:09;82201.66;;;20.95;29.02
64711;BME280;51139;45.626;6.850;2023-07-31T12:50:34;82203.44;;;20.75;31.32
64711;BME280;51139;45.626;6.850;2023-07-31T12:53:02;82202.34;;;20.96;30.91
64711;BME280;51139;45.626;6.850;2023-07-31T12:55:28;82196.03;;;20.89;34.90
64711;BME280;51139;45.626;6.850;2023-07-31T12:57:54;82195.19;;;21.19;31.81
64711;BME280;51139;45.626;6.850;2023-07-31T13:00:19;82185.69;;;20.99;32.45
64711;BME280;51139;45.626;6.850;2023-07-31T13:02:44;82193.25;;;21.37;32.36
64711;BME280;51139;45.626;6.850;2023-07-31T13:05:10;82192.50;;;21.19;30.74
64711;BME280;51139;45.626;6.850;2023-07-31T13:07:35;82181.09;;;20.86;30.22
64711;BME280;51139;45.626;6.850;2023-07-31T13:10:01;82182.97;;;20.99;27.63
64711;BME280;51139;45.626;6.850;2023-07-31T13:12:26;82184.63;;;21.07;29.45
64711;BME280;51139;45.626;6.850;2023-07-31T13:14:52;82178.53;;;21.06;28.42
64711;BME280;51139;45.626;6.850;2023-07-31T13:17:18;82177.28;;;21.25;25.40
64711;BME280;51139;45.626;6.850;2023-07-31T13:19:43;82177.91;;;21.24;29.10
64711;BME280;51139;45.626;6.850;2023-07-31T13:22:09;82180.91;;;20.82;29.79
64711;BME280;51139;45.626;6.850;2023-07-31T13:24:34;82173.53;;;21.33;27.55
64711;BME280;51139;45.626;6.850;2023-07-31T13:26:59;82170.88;;;21.17;29.18
64711;BME280;51139;45.626;6.850;2023-07-31T13:29:25;82165.31;;;21.12;29.08
64711;BME280;51139;45.626;6.850;2023-07-31T13:31:51;82175.41;;;21.12;31.78
64711;BME280;51139;45.626;6.850;2023-07-31T13:34:17;82167.31;;;21.12;32.03
64711;BME280;51139;45.626;6.850;2023-07-31T13:36:42;82160.81;;;21.17;32.28
64711;BME280;51139;45.626;6.850;2023-07-31T13:39:07;82167.69;;;21.04;32.23
64711;BME280;51139;45.626;6.850;2023-07-31T13:41:33;82164.63;;;21.12;35.18
64711;BME280;51139;45.626;6.850;2023-07-31T13:43:58;82159.28;;;20.96;32.95
64711;BME280;51139;45.626;6.850;2023-07-31T13:46:24;82165.41;;;21.14;34.57
64711;BME280;51139;45.626;6.850;2023-07-31T13:48:50;82162.59;;;20.94;35.99
64711;BME280;51139;45.626;6.850;2023-07-31T13:51:16;82150.53;;;21.13;35.90
64711;BME280;51139;45.626;6.850;2023-07-31T13:53:41;82159.97;;;21.31;37.57
64711;BME280;51139;45.626;6.850;2023-07-31T13:56:06;82147.44;;;21.03;36.47
64711;BME280;51139;45.626;6.850;2023-07-31T13:58:33;82150.78;;;20.85;35.25
64711;BME280;51139;45.626;6.850;2023-07-31T14:00:58;82152.22;;;21.05;35.61
64711;BME280;51139;45.626;6.850;2023-07-31T14:03:23;82150.97;;;21.24;33.76
64711;BME280;51139;45.626;6.850;2023-07-31T14:05:49;82160.25;;;21.55;33.51
64711;BME280;51139;45.626;6.850;2023-07-31T14:08:15;82155.66;;;21.23;36.23
64711;BME280;51139;45.626;6.850;2023-07-31T14:10:40;82147.16;;;21.13;35.92
64711;BME280;51139;45.626;6.850;2023-07-31T14:13:05;82150.50;;;21.29;36.35
64711;BME280;51139;45.626;6.850;2023-07-31T14:15:31;82152.16;;;21.37;36.72
64711;BME280;51139;45.626;6.850;2023-07-31T14:17:57;82155.63;;;21.57;36.61
64711;BME280;51139;45.626;6.850;2023-07-31T14:20:22;82141.69;;;21.27;36.22
64711;BME280;51139;45.626;6.850;2023-07-31T14:22:48;82152.69;;;21.33;36.14
64711;BME280;51139;45.626;6.850;2023-07-31T14:25:13;82147.22;;;21.49;33.18
64711;BME280;51139;45.626;6.850;2023-07-31T14:27:40;82146.69;;;21.69;35.30
64711;BME280;51139;45.626;6.850;2023-07-31T14:30:06;82141.84;;;21.83;31.96
64711;BME280;51139;45.626;6.850;2023-07-31T14:32:31;82145.53;;;21.40;37.44
64711;BME280;51139;45.626;6.850;2023-07-31T14:34:57;82142.16;;;21.05;35.86
64711;BME280;51139;45.626;6.850;2023-07-31T14:37:22;82143.97;;;21.35;37.29
64711;BME280;51139;45.626;6.850;2023-07-31T14:39:47;82143.44;;;21.04;36.25
64711;BME280;51139;45.626;6.850;2023-07-31T14:42:13;82146.69;;;21.35;35.01
64711;BME280;51139;45.626;6.850;2023-07-31T14:44:38;82145.44;;;21.38;32.13
64711;BME280;51139;45.626;6.850;2023-07-31T14:47:04;82142.09;;;21.55;30.63
64711;BME280;51139;45.626;6.850;2023-07-31T14:49:29;82142.47;;;21.13;37.03
64711;BME280;51139;45.626;6.850;2023-07-31T14:51:55;82136.81;;;21.23;34.32
64711;BME280;51139;45.626;6.850;2023-07-31T14:54:20;82137.03;;;21.29;33.78
64711;BME280;51139;45.626;6.850;2023-07-31T14:56:45;82136.13;;;21.23;37.63
64711;BME280;51139;45.626;6.850;2023-07-31T14:59:11;82133.47;;;21.07;31.68
64711;BME280;51139;45.626;6.850;2023-07-31T15:01:37;82134.75;;;21.40;32.13
64711;BME280;51139;45.626;6.850;2023-07-31T15:04:02;82137.66;;;21.80;31.84
64711;BME280;51139;45.626;6.850;2023-07-31T15:06:28;82140.69;;;21.36;33.83
64711;BME280;51139;45.626;6.850;2023-07-31T15:08:53;82142.44;;;21.29;32.87
64711;BME280;51139;45.626;6.850;2023-07-31T15:11:18;82134.59;;;21.36;36.04
64711;BME280;51139;45.626;6.850;2023-07-31T15:13:44;82131.75;;;21.32;34.43
64711;BME280;51139;45.626;6.850;2023-07-31T15:16:09;82129.28;;;21.38;33.94
64711;BME280;51139;45.626;6.850;2023-07-31T15:18:34;82126.06;;;21.41;31.09
64711;BME280;51139;45.626;6.850;2023-07-31T15:21:00;82130.91;;;21.45;35.21
64711;BME280;51139;45.626;6.850;2023-07-31T15:23:25;82128.44;;;21.33;38.61
64711;BME280;51139;45.626;6.850;2023-07-31T15:25:51;82134.28;;;21.27;37.81
64711;BME280;51139;45.626;6.850;2023-07-31T15:28:18;82135.91;;;21.69;37.03
64711;BME280;51139;45.626;6.850;2023-07-31T15:30:43;82128.28;;;21.29;37.65
64711;BME280;51139;45.626;6.850;2023-07-31T15:33:09;82134.63;;;21.20;38.33
64711;BME280;51139;45.626;6.850;2023-07-31T15:35:34;82130.44;;;21.33;38.40
64711;BME280;51139;45.626;6.850;2023-07-31T15:37:59;82129.16;;;21.52;36.65
64711;BME280;51139;45.626;6.850;2023-07-31T15:40:25;82124.53;;;21.36;36.54
64711;BME280;51139;45.626;6.850;2023-07-31T15:42:50;82121.53;;;21.46;37.58
64711;BME280;51139;45.626;6.850;2023-07-31T15:45:15;82118.63;;;21.58;38.24
64711;BME280;51139;45.626;6.850;2023-07-31T15:47:41;82110.66;;;21.44;38.20
64711;BME280;51139;45.626;6.850;2023-07-31T15:50:06;82109.84;;;21.05;40.12
64711;BME280;51139;45.626;6.850;2023-07-31T15:52:32;82110.66;;;20.92;38.93
64711;BME280;51139;45.626;6.850;2023-07-31T15:54:57;82109.56;;;21.15;40.82
64711;BME280;51139;45.626;6.850;2023-07-31T15:57:22;82110.41;;;21.20;37.20
64711;BME280;51139;45.626;6.850;2023-07-31T15:59:48;82101.72;;;21.21;39.66
64711;BME280;51139;45.626;6.850;2023-07-31T16:02:13;82106.78;;;21.13;39.29
64711;BME280;51139;45.626;6.850;2023-07-31T16:04:40;82111.13;;;21.56;39.14
64711;BME280;51139;45.626;6.850;2023-07-31T16:07:05;82115.78;;;21.20;39.81
64711;BME280;51139;45.626;6.850;2023-07-31T16:09:31;82118.13;;;20.93;40.18
64711;BME280;51139;45.626;6.850;2023-07-31T16:11:56;82114.25;;;21.14;39.57
64711;BME280;51139;45.626;6.850;2023-07-31T16:14:22;82113.97;;;21.24;39.20
64711;BME280;51139;45.626;6.850;2023-07-31T16:16:47;82123.63;;;21.48;39.80
64711;BME280;51139;45.626;6.850;2023-07-31T16:19:13;82122.97;;;21.49;37.84
64711;BME280;51139;45.626;6.850;2023-07-31T16:21:38;82121.84;;;21.54;38.52
64711;BME280;51139;45.626;6.850;2023-07-31T16:24:04;82122.25;;;22.01;37.06
64711;BME280;51139;45.626;6.850;2023-07-31T16:26:30;82118.84;;;22.00;37.09
64711;BME280;51139;45.626;6.850;2023-07-31T16:28:56;82125.63;;;22.01;37.79
64711;BME280;51139;45.626;6.850;2023-07-31T16:31:21;82131.34;;;22.10;38.80
64711;BME280;51139;45.626;6.850;2023-07-31T16:33:46;82122.88;;;21.63;37.01
64711;BME280;51139;45.626;6.850;2023-07-31T16:36:12;82124.34;;;21.84;38.67
64711;BME280;51139;45.626;6.850;2023-07-31T16:38:37;82128.41;;;21.67;37.96
64711;BME280;51139;45.626;6.850;2023-07-31T16:41:02;82126.25;;;21.82;37.50
64711;BME280;51139;45.626;6.850;2023-07-31T16:43:28;82127.03;;;21.84;37.95
64711;BME280;51139;45.626;6.850;2023-07-31T16:45:55;82121.91;;;21.56;39.46
64711;BME280;51139;45.626;6.850;2023-07-31T16:48:21;82130.03;;;21.75;39.10
64711;BME280;51139;45.626;6.850;2023-07-31T16:50:46;82130.19;;;21.26;39.55
64711;BME280;51139;45.626;6.850;2023-07-31T16:53:12;82134.50;;;21.34;39.76
64711;BME280;51139;45.626;6.850;2023-07-31T16:55:37;82129.28;;;21.38;40.27
64711;BME280;51139;45.626;6.850;2023-07-31T16:58:03;82126.47;;;21.52;41.06
64711;BME280;51139;45.626;6.850;2023-07-31T17:00:28;82133.22;;;21.69;39.57
64711;BME280;51139;45.626;6.850;2023-07-31T17:02:54;82134.78;;;21.06;39.42
64711;BME280;51139;45.626;6.850;2023-07-31T17:05:20;82123.84;;;21.02;40.16
64711;BME280;51139;45.626;6.850;2023-07-31T17:07:45;82130.47;;;21.17;39.37
64711;BME280;51139;45.626;6.850;2023-07-31T17:10:10;82128.09;;;20.91;37.98
64711;BME280;51139;45.626;6.850;2023-07-31T17:12:36;82123.25;;;20.87;38.34
64711;BME280;51139;45.626;6.850;2023-07-31T17:15:01;82127.72;;;20.48;37.80
64711;BME280;51139;45.626;6.850;2023-07-31T17:17:26;82129.25;;;20.37;36.17
64711;BME280;51139;45.626;6.850;2023-07-31T17:19:53;82131.25;;;20.69;35.85
64711;BME280;51139;45.626;6.850;2023-07-31T17:22:18;82135.75;;;20.96;36.58
64711;BME280;51139;45.626;6.850;2023-07-31T17:24:44;82133.50;;;20.59;38.06
64711;BME280;51139;45.626;6.850;2023-07-31T17:27:09;82131.88;;;20.51;36.23
64711;BME280;51139;45.626;6.850;2023-07-31T17:29:34;82138.00;;;20.70;34.96
64711;BME280;51139;45.626;6.850;2023-07-31T17:32:00;82132.72;;;20.56;34.61
64711;BME280;51139;45.626;6.850;2023-07-31T17:34:25;82132.28;;;20.62;34.71
64711;BME280;51139;45.626;6.850;2023-07-31T17:36:50;82136.63;;;20.85;34.95
64711;BME280;51139;45.626;6.850;2023-07-31T17:39:16;82133.31;;;20.87;36.14
64711;BME280;51139;45.626;6.850;2023-07-31T17:41:41;82126.81;;;20.92;34.89
64711;BME280;51139;45.626;6.850;2023-07-31T17:44:06;82141.72;;;21.11;34.93
64711;BME280;51139;45.626;6.850;2023-07-31T17:46:32;82142.34;;;20.93;35.27
64711;BME280;51139;45.626;6.850;2023-07-31T17:48:57;82142.06;;;21.03;35.90
64711;BME280;51139;45.626;6.850;2023-07-31T17:51:24;82141.81;;;20.97;35.40
64711;BME280;51139;45.626;6.850;2023-07-31T17:53:49;82149.59;;;21.23;34.82
64711;BME280;51139;45.626;6.850;2023-07-31T17:56:15;82144.41;;;21.11;36.78
64711;BME280;51139;45.626;6.850;2023-07-31T17:58:40;82153.53;;;21.04;36.73
64711;BME280;51139;45.626;6.850;2023-07-31T18:01:05;82154.59;;;20.96;36.33
64711;BME280;51139;45.626;6.850;2023-07-31T18:03:31;82150.09;;;20.85;36.84
64711;BME280;51139;45.626;6.850;2023-07-31T18:05:56;82149.03;;;20.92;37.50
64711;BME280;51139;45.626;6.850;2023-07-31T18:08:21;82148.00;;;20.99;38.14
64711;BME280;51139;45.626;6.850;2023-07-31T18:10:47;82148.63;;;20.82;37.74
64711;BME280;51139;45.626;6.850;2023-07-31T18:13:13;82149.72;;;20.93;38.21
64711;BME280;51139;45.626;6.850;2023-07-31T18:15:45;82151.47;;;20.22;37.76
64711;BME280;51139;45.626;6.850;2023-07-31T18:18:12;82144.78;;;20.55;37.20
64711;BME280;51139;45.626;6.850;2023-07-31T18:20:38;82144.84;;;19.93;37.69
64711;BME280;51139;45.626;6.850;2023-07-31T18:23:03;82143.41;;;20.22;38.51
64711;BME280;51139;45.626;6.850;2023-07-31T18:25:28;82137.25;;;20.51;37.84
64711;BME280;51139;45.626;6.850;2023-07-31T18:27:54;82136.47;;;20.17;36.55
64711;BME280;51139;45.626;6.850;2023-07-31T18:30:19;82133.84;;;20.51;36.65
64711;BME280;51139;45.626;6.850;2023-07-31T18:32:45;82133.34;;;20.54;36.37
64711;BME280;51139;45.626;6.850;2023-07-31T18:35:10;82134.66;;;20.53;37.45
64711;BME280;51139;45.626;6.850;2023-07-31T18:37:36;82133.78;;;20.33;36.68
64711;BME280;51139;45.626;6.850;2023-07-31T18:40:01;82139.25;;;20.35;34.88
64711;BME280;51139;45.626;6.850;2023-07-31T18:42:26;82134.38;;;20.31;35.42
64711;BME280;51139;45.626;6.850;2023-07-31T18:44:52;82143.06;;;19.23;36.22
64711;BME280;51139;45.626;6.850;2023-07-31T18:47:18;82146.75;;;19.60;36.02
64711;BME280;51139;45.626;6.850;2023-07-31T18:49:44;82157.06;;;19.66;36.86
64711;BME280;51139;45.626;6.850;2023-07-31T18:52:09;82154.66;;;19.72;37.43
64711;BME280;51139;45.626;6.850;2023-07-31T18:54:36;82164.72;;;19.88;36.83
64711;BME280;51139;45.626;6.850;2023-07-31T18:57:01;82144.19;;;18.48;38.54
64711;BME280;51139;45.626;6.850;2023-07-31T18:59:26;82144.28;;;18.92;37.58
64711;BME280;51139;45.626;6.850;2023-07-31T19:01:52;82148.94;;;19.80;37.66
64711;BME280;51139;45.626;6.850;2023-07-31T19:04:17;82148.97;;;19.06;36.91
64711;BME280;51139;45.626;6.850;2023-07-31T19:06:42;82160.38;;;19.20;37.07
64711;BME280;51139;45.626;6.850;2023-07-31T19:09:10;82152.47;;;19.38;36.41
64711;BME280;51139;45.626;6.850;2023-07-31T19:11:36;82153.03;;;19.51;37.47